sensor_id;sensor_type;location;lat;lon;timestamp;P1;durP1;ratioP1;P2;durP2;ratioP2
9409;SDS011;4744;52.576;13.568;2023-01-23T00:02:14;13.65;;;12.02;;
9409;SDS011;4744;52.576;13.568;2023-01-23T00:04:41;15.00;;;11.55;;
9409;SDS011;4744;52.576;13.568;2023-01-23T00:07:09;13.38;;;11.40;;
9409;SDS011;4744;52.576;13.568;2023-01-23T00:09:37;12.90;;;10.90;;
9409;SDS011;4744;52.576;13.568;2023-01-23T00:12:04;12.85;;;10.75;;
9409;SDS011;4744;52.576;13.568;2023-01-23T00:14:31;13.25;;;10.35;;
9409;SDS011;4744;52.576;13.568;2023-01-23T00:16:58;11.88;;;10.18;;
9409;SDS011;4744;52.576;13.568;2023-01-23T00:19:25;15.18;;;11.65;;
9409;SDS011;4744;52.576;13.568;2023-01-23T00:21:52;15.98;;;12.10;;
9409;SDS011;4744;52.576;13.568;2023-01-23T00:24:19;14.25;;;11.57;;
9409;SDS011;4744;52.576;13.568;2023-01-23T00:26:47;15.50;;;11.88;;
9409;SDS011;4744;52.576;13.568;2023-01-23T00:29:14;14.45;;;11.18;;
9409;SDS011;4744;52.576;13.568;2023-01-23T00:31:41;16.50;;;11.45;;
9409;SDS011;4744;52.576;13.568;2023-01-23T00:34:09;15.30;;;11.90;;
9409;SDS011;4744;52.576;13.568;2023-01-23T00:36:39;16.55;;;11.45;;
9409;SDS011;4744;52.576;13.568;2023-01-23T00:39:08;15.45;;;12.05;;
9409;SDS011;4744;52.576;13.568;2023-01-23T00:41:39;16.00;;;12.45;;
9409;SDS011;4744;52.576;13.568;2023-01-23T00:44:07;15.80;;;11.70;;
9409;SDS011;4744;52.576;13.568;2023-01-23T00:46:37;15.73;;;12.10;;
9409;SDS011;4744;52.576;13.568;2023-01-23T00:49:04;16.70;;;12.27;;
9409;SDS011;4744;52.576;13.568;2023-01-23T00:51:31;15.77;;;12.40;;
9409;SDS011;4744;52.576;13.568;2023-01-23T00:53:58;16.13;;;12.20;;
9409;SDS011;4744;52.576;13.568;2023-01-23T00:56:25;15.85;;;11.73;;
9409;SDS011;4744;52.576;13.568;2023-01-23T00:58:52;16.02;;;11.90;;
9409;SDS011;4744;52.576;13.568;2023-01-23T01:01:23;16.13;;;12.43;;
9409;SDS011;4744;52.576;13.568;2023-01-23T01:03:52;16.67;;;12.55;;
9409;SDS011;4744;52.576;13.568;2023-01-23T01:06:19;16.05;;;12.02;;
9409;SDS011;4744;52.576;13.568;2023-01-23T01:08:46;16.75;;;12.63;;
9409;SDS011;4744;52.576;13.568;2023-01-23T01:11:13;17.25;;;12.57;;
9409;SDS011;4744;52.576;13.568;2023-01-23T01:13:40;14.65;;;12.45;;
9409;SDS011;4744;52.576;13.568;2023-01-23T01:16:08;14.98;;;12.10;;
9409;SDS011;4744;52.576;13.568;2023-01-23T01:18:36;17.10;;;11.82;;
9409;SDS011;4744;52.576;13.568;2023-01-23T01:21:04;15.68;;;12.18;;
9409;SDS011;4744;52.576;13.568;2023-01-23T01:23:32;17.30;;;12.50;;
9409;SDS011;4744;52.576;13.568;2023-01-23T01:25:59;15.80;;;12.35;;
9409;SDS011;4744;52.576;13.568;2023-01-23T01:28:27;15.52;;;12.30;;
9409;SDS011;4744;52.576;13.568;2023-01-23T01:30:55;18.92;;;13.10;;
9409;SDS011;4744;52.576;13.568;2023-01-23T01:33:22;17.20;;;12.63;;
9409;SDS011;4744;52.576;13.568;2023-01-23T01:35:51;14.43;;;10.90;;
9409;SDS011;4744;52.576;13.568;2023-01-23T01:38:20;17.75;;;12.93;;
9409;SDS011;4744;52.576;13.568;2023-01-23T01:40:47;17.00;;;12.40;;
9409;SDS011;4744;52.576;13.568;2023-01-23T01:43:16;16.05;;;12.13;;
9409;SDS011;4744;52.576;13.568;2023-01-23T01:46:05;16.30;;;12.45;;
9409;SDS011;4744;52.576;13.568;2023-01-23T01:48:43;17.88;;;12.45;;
9409;SDS011;4744;52.576;13.568;2023-01-23T01:51:17;17.70;;;13.10;;
9409;SDS011;4744;52.576;13.568;2023-01-23T01:53:48;17.65;;;13.38;;
9409;SDS011;4744;52.576;13.568;2023-01-23T01:56:20;17.30;;;12.25;;
9409;SDS011;4744;52.576;13.568;2023-01-23T01:58:48;17.88;;;12.40;;
9409;SDS011;4744;52.576;13.568;2023-01-23T02:01:18;17.13;;;12.57;;
9409;SDS011;4744;52.576;13.568;2023-01-23T02:03:45;16.05;;;12.30;;
9409;SDS011;4744;52.576;13.568;2023-01-23T02:06:13;15.95;;;12.50;;
9409;SDS011;4744;52.576;13.568;2023-01-23T02:08:44;16.85;;;12.02;;
9409;SDS011;4744;52.576;13.568;2023-01-23T02:11:16;18.17;;;13.48;;
9409;SDS011;4744;52.576;13.568;2023-01-23T02:13:43;17.65;;;12.00;;
9409;SDS011;4744;52.576;13.568;2023-01-23T02:16:11;18.02;;;12.77;;
9409;SDS011;4744;52.576;13.568;2023-01-23T02:18:40;17.63;;;12.75;;
9409;SDS011;4744;52.576;13.568;2023-01-23T02:21:11;16.65;;;12.57;;
9409;SDS011;4744;52.576;13.568;2023-01-23T02:23:48;14.70;;;11.27;;
9409;SDS011;4744;52.576;13.568;2023-01-23T02:26:26;17.90;;;13.30;;
9409;SDS011;4744;52.576;13.568;2023-01-23T02:28:57;17.90;;;12.90;;
9409;SDS011;4744;52.576;13.568;2023-01-23T02:31:24;16.23;;;12.00;;
9409;SDS011;4744;52.576;13.568;2023-01-23T02:33:53;16.27;;;12.27;;
9409;SDS011;4744;52.576;13.568;2023-01-23T02:38:53;17.13;;;12.18;;
9409;SDS011;4744;52.576;13.568;2023-01-23T02:41:28;17.23;;;13.05;;
9409;SDS011;4744;52.576;13.568;2023-01-23T02:43:57;14.52;;;12.73;;
9409;SDS011;4744;52.576;13.568;2023-01-23T02:46:26;16.45;;;12.63;;
9409;SDS011;4744;52.576;13.568;2023-01-23T02:48:53;15.73;;;11.75;;
9409;SDS011;4744;52.576;13.568;2023-01-23T02:51:20;14.30;;;11.38;;
9409;SDS011;4744;52.576;13.568;2023-01-23T02:53:48;15.23;;;11.60;;
9409;SDS011;4744;52.576;13.568;2023-01-23T04:56:16;15.00;;;12.35;;
9409;SDS011;4744;52.576;13.568;2023-01-23T05:18:18;17.70;;;12.88;;
9409;SDS011;4744;52.576;13.568;2023-01-23T05:20:45;17.50;;;13.27;;
9409;SDS011;4744;52.576;13.568;2023-01-23T05:23:12;15.35;;;12.70;;
9409;SDS011;4744;52.576;13.568;2023-01-23T05:25:39;18.10;;;13.45;;
9409;SDS011;4744;52.576;13.568;2023-01-23T05:28:08;16.95;;;13.07;;
9409;SDS011;4744;52.576;13.568;2023-01-23T05:30:35;17.90;;;14.20;;
9409;SDS011;4744;52.576;13.568;2023-01-23T05:33:03;17.35;;;13.55;;
9409;SDS011;4744;52.576;13.568;2023-01-23T05:35:30;17.65;;;13.85;;
9409;SDS011;4744;52.576;13.568;2023-01-23T05:37:58;15.38;;;12.93;;
9409;SDS011;4744;52.576;13.568;2023-01-23T05:40:26;16.42;;;12.73;;
9409;SDS011;4744;52.576;13.568;2023-01-23T05:42:54;17.15;;;12.60;;
9409;SDS011;4744;52.576;13.568;2023-01-23T05:45:23;15.88;;;12.38;;
9409;SDS011;4744;52.576;13.568;2023-01-23T05:47:50;16.70;;;12.57;;
9409;SDS011;4744;52.576;13.568;2023-01-23T05:50:19;13.93;;;12.18;;
9409;SDS011;4744;52.576;13.568;2023-01-23T05:52:48;16.83;;;12.38;;
9409;SDS011;4744;52.576;13.568;2023-01-23T05:55:16;14.90;;;12.50;;
9409;SDS011;4744;52.576;13.568;2023-01-23T05:57:43;16.42;;;12.43;;
9409;SDS011;4744;52.576;13.568;2023-01-23T06:00:12;16.70;;;12.60;;
9409;SDS011;4744;52.576;13.568;2023-01-23T06:02:41;15.25;;;12.55;;
9409;SDS011;4744;52.576;13.568;2023-01-23T06:05:08;17.20;;;13.30;;
9409;SDS011;4744;52.576;13.568;2023-01-23T06:07:35;16.13;;;12.82;;
9409;SDS011;4744;52.576;13.568;2023-01-23T06:10:03;15.93;;;13.30;;
9409;SDS011;4744;52.576;13.568;2023-01-23T06:12:32;16.95;;;13.52;;
9409;SDS011;4744;52.576;13.568;2023-01-23T06:14:59;18.30;;;13.98;;
9409;SDS011;4744;52.576;13.568;2023-01-23T06:17:26;16.70;;;13.05;;
9409;SDS011;4744;52.576;13.568;2023-01-23T06:19:54;15.45;;;11.55;;
9409;SDS011;4744;52.576;13.568;2023-01-23T06:22:22;17.70;;;13.13;;
9409;SDS011;4744;52.576;13.568;2023-01-23T06:24:49;16.35;;;13.48;;
9409;SDS011;4744;52.576;13.568;2023-01-23T06:27:17;15.68;;;12.93;;
9409;SDS011;4744;52.576;13.568;2023-01-23T06:29:44;16.35;;;12.68;;
9409;SDS011;4744;52.576;13.568;2023-01-23T06:32:11;17.63;;;13.90;;
9409;SDS011;4744;52.576;13.568;2023-01-23T06:34:38;17.42;;;13.60;;
9409;SDS011;4744;52.576;13.568;2023-01-23T06:37:06;18.48;;;14.60;;
9409;SDS011;4744;52.576;13.568;2023-01-23T06:39:33;16.67;;;13.05;;
9409;SDS011;4744;52.576;13.568;2023-01-23T06:42:00;18.52;;;14.00;;
9409;SDS011;4744;52.576;13.568;2023-01-23T06:44:27;16.10;;;12.63;;
9409;SDS011;4744;52.576;13.568;2023-01-23T06:46:54;17.45;;;13.98;;
9409;SDS011;4744;52.576;13.568;2023-01-23T06:49:21;17.65;;;13.82;;
9409;SDS011;4744;52.576;13.568;2023-01-23T06:51:48;19.65;;;15.18;;
9409;SDS011;4744;52.576;13.568;2023-01-23T06:54:16;18.75;;;14.00;;
9409;SDS011;4744;52.576;13.568;2023-01-23T06:56:43;18.33;;;14.05;;
9409;SDS011;4744;52.576;13.568;2023-01-23T06:59:10;18.17;;;14.05;;
9409;SDS011;4744;52.576;13.568;2023-01-23T07:01:37;16.45;;;13.20;;
9409;SDS011;4744;52.576;13.568;2023-01-23T07:04:04;18.88;;;13.88;;
9409;SDS011;4744;52.576;13.568;2023-01-23T07:06:31;18.55;;;13.25;;
9409;SDS011;4744;52.576;13.568;2023-01-23T07:08:57;18.58;;;14.52;;
9409;SDS011;4744;52.576;13.568;2023-01-23T07:11:26;19.85;;;14.80;;
9409;SDS011;4744;52.576;13.568;2023-01-23T07:13:53;19.55;;;15.57;;
9409;SDS011;4744;52.576;13.568;2023-01-23T07:16:20;20.15;;;14.82;;
9409;SDS011;4744;52.576;13.568;2023-01-23T07:18:47;18.38;;;14.02;;
9409;SDS011;4744;52.576;13.568;2023-01-23T07:21:14;18.65;;;15.00;;
9409;SDS011;4744;52.576;13.568;2023-01-23T07:23:40;18.83;;;14.80;;
9409;SDS011;4744;52.576;13.568;2023-01-23T07:26:08;19.08;;;13.48;;
9409;SDS011;4744;52.576;13.568;2023-01-23T07:28:37;19.90;;;14.75;;
9409;SDS011;4744;52.576;13.568;2023-01-23T07:31:05;18.75;;;14.50;;
9409;SDS011;4744;52.576;13.568;2023-01-23T07:33:32;18.45;;;14.25;;
9409;SDS011;4744;52.576;13.568;2023-01-23T07:35:59;19.25;;;14.35;;
9409;SDS011;4744;52.576;13.568;2023-01-23T07:38:26;17.15;;;13.63;;
9409;SDS011;4744;52.576;13.568;2023-01-23T07:40:56;18.63;;;14.13;;
9409;SDS011;4744;52.576;13.568;2023-01-23T07:43:23;18.38;;;14.02;;
9409;SDS011;4744;52.576;13.568;2023-01-23T07:45:52;17.23;;;13.93;;
9409;SDS011;4744;52.576;13.568;2023-01-23T07:48:19;17.42;;;13.90;;
9409;SDS011;4744;52.576;13.568;2023-01-23T07:50:46;19.45;;;14.32;;
9409;SDS011;4744;52.576;13.568;2023-01-23T07:53:13;18.15;;;14.00;;
9409;SDS011;4744;52.576;13.568;2023-01-23T07:55:39;19.58;;;14.50;;
9409;SDS011;4744;52.576;13.568;2023-01-23T07:58:06;16.60;;;14.02;;
9409;SDS011;4744;52.576;13.568;2023-01-23T08:00:33;17.92;;;14.68;;
9409;SDS011;4744;52.576;13.568;2023-01-23T08:03:02;17.63;;;13.15;;
9409;SDS011;4744;52.576;13.568;2023-01-23T08:05:28;17.95;;;13.82;;
9409;SDS011;4744;52.576;13.568;2023-01-23T08:07:55;18.20;;;14.65;;
9409;SDS011;4744;52.576;13.568;2023-01-23T08:10:22;18.23;;;14.07;;
9409;SDS011;4744;52.576;13.568;2023-01-23T08:12:49;19.27;;;13.80;;
9409;SDS011;4744;52.576;13.568;2023-01-23T08:15:16;17.45;;;13.95;;
9409;SDS011;4744;52.576;13.568;2023-01-23T08:17:43;19.50;;;14.20;;
9409;SDS011;4744;52.576;13.568;2023-01-23T08:20:11;18.30;;;14.25;;
9409;SDS011;4744;52.576;13.568;2023-01-23T08:22:38;18.80;;;13.93;;
9409;SDS011;4744;52.576;13.568;2023-01-23T08:25:06;18.10;;;13.85;;
9409;SDS011;4744;52.576;13.568;2023-01-23T08:27:34;17.45;;;13.43;;
9409;SDS011;4744;52.576;13.568;2023-01-23T08:30:01;17.70;;;13.90;;
9409;SDS011;4744;52.576;13.568;2023-01-23T08:32:28;16.27;;;13.65;;
9409;SDS011;4744;52.576;13.568;2023-01-23T08:34:55;18.63;;;14.35;;
9409;SDS011;4744;52.576;13.568;2023-01-23T08:37:23;17.83;;;13.95;;
9409;SDS011;4744;52.576;13.568;2023-01-23T08:39:50;17.17;;;13.60;;
9409;SDS011;4744;52.576;13.568;2023-01-23T08:42:17;16.60;;;13.75;;
9409;SDS011;4744;52.576;13.568;2023-01-23T08:44:44;17.58;;;13.75;;
9409;SDS011;4744;52.576;13.568;2023-01-23T08:47:11;17.25;;;13.35;;
9409;SDS011;4744;52.576;13.568;2023-01-23T08:49:38;18.88;;;13.73;;
9409;SDS011;4744;52.576;13.568;2023-01-23T08:52:05;17.05;;;13.68;;
9409;SDS011;4744;52.576;13.568;2023-01-23T08:54:33;16.65;;;13.38;;
9409;SDS011;4744;52.576;13.568;2023-01-23T08:57:00;18.27;;;13.50;;
9409;SDS011;4744;52.576;13.568;2023-01-23T08:59:27;15.20;;;12.05;;
9409;SDS011;4744;52.576;13.568;2023-01-23T09:01:54;16.88;;;12.77;;
9409;SDS011;4744;52.576;13.568;2023-01-23T09:04:21;16.33;;;13.52;;
9409;SDS011;4744;52.576;13.568;2023-01-23T09:06:48;14.75;;;12.68;;
9409;SDS011;4744;52.576;13.568;2023-01-23T09:09:15;16.83;;;12.93;;
9409;SDS011;4744;52.576;13.568;2023-01-23T09:11:44;16.10;;;13.23;;
9409;SDS011;4744;52.576;13.568;2023-01-23T09:14:11;15.65;;;12.75;;
9409;SDS011;4744;52.576;13.568;2023-01-23T09:16:38;16.90;;;13.55;;
9409;SDS011;4744;52.576;13.568;2023-01-23T09:19:05;16.15;;;12.52;;
9409;SDS011;4744;52.576;13.568;2023-01-23T09:21:34;15.63;;;13.07;;
9409;SDS011;4744;52.576;13.568;2023-01-23T09:24:01;14.93;;;12.55;;
9409;SDS011;4744;52.576;13.568;2023-01-23T09:26:28;14.88;;;11.80;;
9409;SDS011;4744;52.576;13.568;2023-01-23T09:28:57;15.95;;;12.93;;
9409;SDS011;4744;52.576;13.568;2023-01-23T09:31:24;16.90;;;13.20;;
9409;SDS011;4744;52.576;13.568;2023-01-23T09:33:51;16.10;;;13.43;;
9409;SDS011;4744;52.576;13.568;2023-01-23T09:36:18;15.40;;;13.02;;
9409;SDS011;4744;52.576;13.568;2023-01-23T09:38:46;15.45;;;12.82;;
9409;SDS011;4744;52.576;13.568;2023-01-23T09:41:15;15.30;;;12.63;;
9409;SDS011;4744;52.576;13.568;2023-01-23T09:43:47;16.88;;;12.38;;
9409;SDS011;4744;52.576;13.568;2023-01-23T09:46:19;14.43;;;12.52;;
9409;SDS011;4744;52.576;13.568;2023-01-23T09:48:51;15.98;;;13.38;;
9409;SDS011;4744;52.576;13.568;2023-01-23T09:51:24;15.48;;;12.90;;
9409;SDS011;4744;52.576;13.568;2023-01-23T09:53:55;14.48;;;12.48;;
9409;SDS011;4744;52.576;13.568;2023-01-23T09:56:29;15.48;;;12.82;;
9409;SDS011;4744;52.576;13.568;2023-01-23T09:59:05;14.85;;;12.75;;
9409;SDS011;4744;52.576;13.568;2023-01-23T10:01:38;16.17;;;12.40;;
9409;SDS011;4744;52.576;13.568;2023-01-23T10:04:05;15.77;;;13.13;;
9409;SDS011;4744;52.576;13.568;2023-01-23T10:06:42;13.63;;;12.18;;
9409;SDS011;4744;52.576;13.568;2023-01-23T10:09:34;16.23;;;12.80;;
9409;SDS011;4744;52.576;13.568;2023-01-23T10:12:12;17.60;;;13.57;;
9409;SDS011;4744;52.576;13.568;2023-01-23T10:14:53;15.77;;;12.50;;
9409;SDS011;4744;52.576;13.568;2023-01-23T10:17:33;14.00;;;11.48;;
9409;SDS011;4744;52.576;13.568;2023-01-23T10:20:15;15.13;;;12.52;;
9409;SDS011;4744;52.576;13.568;2023-01-23T10:22:56;14.85;;;12.95;;
9409;SDS011;4744;52.576;13.568;2023-01-23T10:25:30;14.57;;;12.48;;
9409;SDS011;4744;52.576;13.568;2023-01-23T10:28:10;15.35;;;13.05;;
9409;SDS011;4744;52.576;13.568;2023-01-23T10:30:42;17.23;;;13.15;;
9409;SDS011;4744;52.576;13.568;2023-01-23T10:33:16;14.70;;;12.60;;
9409;SDS011;4744;52.576;13.568;2023-01-23T10:35:45;14.45;;;11.90;;
9409;SDS011;4744;52.576;13.568;2023-01-23T10:38:21;15.63;;;12.65;;
9409;SDS011;4744;52.576;13.568;2023-01-23T10:40:52;15.90;;;12.52;;
9409;SDS011;4744;52.576;13.568;2023-01-23T10:43:37;17.35;;;12.85;;
9409;SDS011;4744;52.576;13.568;2023-01-23T10:46:07;15.05;;;13.05;;
9409;SDS011;4744;52.576;13.568;2023-01-23T10:48:39;15.23;;;13.23;;
9409;SDS011;4744;52.576;13.568;2023-01-23T10:51:28;15.23;;;12.40;;
9409;SDS011;4744;52.576;13.568;2023-01-23T10:54:04;15.88;;;12.80;;
9409;SDS011;4744;52.576;13.568;2023-01-23T10:56:38;13.88;;;12.10;;
9409;SDS011;4744;52.576;13.568;2023-01-23T10:59:18;15.98;;;13.50;;
9409;SDS011;4744;52.576;13.568;2023-01-23T11:02:01;15.02;;;12.00;;
9409;SDS011;4744;52.576;13.568;2023-01-23T11:04:44;14.63;;;12.32;;
9409;SDS011;4744;52.576;13.568;2023-01-23T11:07:12;14.70;;;12.13;;
9409;SDS011;4744;52.576;13.568;2023-01-23T11:09:47;15.05;;;12.52;;
9409;SDS011;4744;52.576;13.568;2023-01-23T11:12:18;16.85;;;13.35;;
9409;SDS011;4744;52.576;13.568;2023-01-23T11:14:46;15.52;;;12.32;;
9409;SDS011;4744;52.576;13.568;2023-01-23T11:17:15;15.35;;;12.85;;
9409;SDS011;4744;52.576;13.568;2023-01-23T11:19:47;15.68;;;13.10;;
9409;SDS011;4744;52.576;13.568;2023-01-23T11:22:25;16.00;;;11.93;;
9409;SDS011;4744;52.576;13.568;2023-01-23T11:24:56;15.70;;;12.32;;
9409;SDS011;4744;52.576;13.568;2023-01-23T11:27:24;14.02;;;11.20;;
9409;SDS011;4744;52.576;13.568;2023-01-23T11:32:51;16.83;;;11.93;;
9409;SDS011;4744;52.576;13.568;2023-01-23T11:35:25;13.88;;;11.35;;
9409;SDS011;4744;52.576;13.568;2023-01-23T11:38:02;15.23;;;12.13;;
9409;SDS011;4744;52.576;13.568;2023-01-23T11:40:30;12.98;;;11.13;;
9409;SDS011;4744;52.576;13.568;2023-01-23T11:42:57;15.27;;;11.77;;
9409;SDS011;4744;52.576;13.568;2023-01-23T11:45:30;14.55;;;11.68;;
9409;SDS011;4744;52.576;13.568;2023-01-23T11:48:10;12.68;;;10.68;;
9409;SDS011;4744;52.576;13.568;2023-01-23T11:50:50;14.05;;;11.20;;
9409;SDS011;4744;52.576;13.568;2023-01-23T11:53:21;12.13;;;10.50;;
9409;SDS011;4744;52.576;13.568;2023-01-23T11:58:57;12.95;;;10.25;;
9409;SDS011;4744;52.576;13.568;2023-01-23T12:01:58;13.30;;;9.80;;
9409;SDS011;4744;52.576;13.568;2023-01-23T12:04:52;12.00;;;10.57;;
9409;SDS011;4744;52.576;13.568;2023-01-23T12:07:31;11.32;;;9.70;;
9409;SDS011;4744;52.576;13.568;2023-01-23T12:10:07;12.65;;;10.55;;
9409;SDS011;4744;52.576;13.568;2023-01-23T12:12:49;12.52;;;10.35;;
9409;SDS011;4744;52.576;13.568;2023-01-23T12:15:41;12.77;;;10.73;;
9409;SDS011;4744;52.576;13.568;2023-01-23T12:18:16;10.60;;;9.43;;
9409;SDS011;4744;52.576;13.568;2023-01-23T12:20:52;12.50;;;9.75;;
9409;SDS011;4744;52.576;13.568;2023-01-23T12:23:32;11.75;;;9.55;;
9409;SDS011;4744;52.576;13.568;2023-01-23T12:26:11;13.18;;;10.13;;
9409;SDS011;4744;52.576;13.568;2023-01-23T12:28:50;14.85;;;10.63;;
9409;SDS011;4744;52.576;13.568;2023-01-23T12:31:26;12.43;;;9.85;;
9409;SDS011;4744;52.576;13.568;2023-01-23T12:34:08;12.63;;;10.27;;
9409;SDS011;4744;52.576;13.568;2023-01-23T12:36:49;12.77;;;10.27;;
9409;SDS011;4744;52.576;13.568;2023-01-23T12:42:34;13.40;;;10.68;;
9409;SDS011;4744;52.576;13.568;2023-01-23T12:45:06;13.15;;;9.90;;
9409;SDS011;4744;52.576;13.568;2023-01-23T12:47:43;11.93;;;9.90;;
9409;SDS011;4744;52.576;13.568;2023-01-23T12:50:18;13.07;;;9.77;;
9409;SDS011;4744;52.576;13.568;2023-01-23T12:52:50;14.65;;;10.13;;
9409;SDS011;4744;52.576;13.568;2023-01-23T12:55:21;13.48;;;10.23;;
9409;SDS011;4744;52.576;13.568;2023-01-23T12:57:54;15.02;;;13.00;;
9409;SDS011;4744;52.576;13.568;2023-01-23T13:06:23;20.20;;;15.57;;
9409;SDS011;4744;52.576;13.568;2023-01-23T13:08:56;21.98;;;15.48;;
9409;SDS011;4744;52.576;13.568;2023-01-23T13:11:34;19.30;;;13.93;;
9409;SDS011;4744;52.576;13.568;2023-01-23T13:14:21;17.35;;;11.60;;
9409;SDS011;4744;52.576;13.568;2023-01-23T13:16:49;15.30;;;11.20;;
9409;SDS011;4744;52.576;13.568;2023-01-23T13:19:22;16.42;;;11.95;;
9409;SDS011;4744;52.576;13.568;2023-01-23T13:22:13;12.25;;;9.57;;
9409;SDS011;4744;52.576;13.568;2023-01-23T13:24:48;13.65;;;11.23;;
9409;SDS011;4744;52.576;13.568;2023-01-23T13:27:37;14.20;;;10.07;;
9409;SDS011;4744;52.576;13.568;2023-01-23T13:36:23;11.65;;;9.25;;
9409;SDS011;4744;52.576;13.568;2023-01-23T13:45:13;11.45;;;9.40;;
9409;SDS011;4744;52.576;13.568;2023-01-23T13:47:57;12.07;;;9.82;;
9409;SDS011;4744;52.576;13.568;2023-01-23T13:51:02;10.75;;;9.52;;
9409;SDS011;4744;52.576;13.568;2023-01-23T13:53:41;10.63;;;9.32;;
9409;SDS011;4744;52.576;13.568;2023-01-23T13:56:27;11.10;;;9.50;;
9409;SDS011;4744;52.576;13.568;2023-01-23T13:59:14;13.50;;;10.13;;
9409;SDS011;4744;52.576;13.568;2023-01-23T14:01:51;11.07;;;9.18;;
9409;SDS011;4744;52.576;13.568;2023-01-23T14:04:54;12.18;;;10.00;;
9409;SDS011;4744;52.576;13.568;2023-01-23T14:07:37;10.07;;;8.73;;
9409;SDS011;4744;52.576;13.568;2023-01-23T14:10:20;11.13;;;9.93;;
9409;SDS011;4744;52.576;13.568;2023-01-23T14:12:49;9.82;;;8.82;;
9409;SDS011;4744;52.576;13.568;2023-01-23T14:15:26;12.25;;;10.38;;
9409;SDS011;4744;52.576;13.568;2023-01-23T14:18:16;11.00;;;8.50;;
9409;SDS011;4744;52.576;13.568;2023-01-23T14:20:46;10.48;;;8.98;;
9409;SDS011;4744;52.576;13.568;2023-01-23T14:23:26;9.23;;;8.23;;
9409;SDS011;4744;52.576;13.568;2023-01-23T14:25:56;9.10;;;8.20;;
9409;SDS011;4744;52.576;13.568;2023-01-23T14:28:23;11.95;;;8.88;;
9409;SDS011;4744;52.576;13.568;2023-01-23T14:30:52;11.88;;;9.05;;
9409;SDS011;4744;52.576;13.568;2023-01-23T14:33:23;9.48;;;8.32;;
9409;SDS011;4744;52.576;13.568;2023-01-23T14:35:52;10.25;;;8.45;;
9409;SDS011;4744;52.576;13.568;2023-01-23T14:38:23;9.73;;;8.40;;
9409;SDS011;4744;52.576;13.568;2023-01-23T14:40:55;12.55;;;8.93;;
9409;SDS011;4744;52.576;13.568;2023-01-23T14:43:23;9.30;;;8.35;;
9409;SDS011;4744;52.576;13.568;2023-01-23T14:45:58;9.68;;;8.65;;
9409;SDS011;4744;52.576;13.568;2023-01-23T14:48:27;9.32;;;8.43;;
9409;SDS011;4744;52.576;13.568;2023-01-23T14:51:07;10.02;;;8.95;;
9409;SDS011;4744;52.576;13.568;2023-01-23T14:53:39;12.48;;;9.63;;
9409;SDS011;4744;52.576;13.568;2023-01-23T14:56:07;10.40;;;8.60;;
9409;SDS011;4744;52.576;13.568;2023-01-23T14:58:36;9.60;;;8.55;;
9409;SDS011;4744;52.576;13.568;2023-01-23T15:01:04;10.05;;;8.30;;
9409;SDS011;4744;52.576;13.568;2023-01-23T15:03:37;10.40;;;8.30;;
9409;SDS011;4744;52.576;13.568;2023-01-23T15:06:12;10.68;;;8.15;;
9409;SDS011;4744;52.576;13.568;2023-01-23T15:08:40;9.23;;;8.27;;
9409;SDS011;4744;52.576;13.568;2023-01-23T15:11:08;11.52;;;10.25;;
9409;SDS011;4744;52.576;13.568;2023-01-23T15:13:44;10.75;;;9.18;;
9409;SDS011;4744;52.576;13.568;2023-01-23T15:16:16;10.70;;;9.60;;
9409;SDS011;4744;52.576;13.568;2023-01-23T15:18:50;13.43;;;10.88;;
9409;SDS011;4744;52.576;13.568;2023-01-23T15:21:26;11.27;;;9.38;;
9409;SDS011;4744;52.576;13.568;2023-01-23T15:23:59;11.75;;;10.02;;
9409;SDS011;4744;52.576;13.568;2023-01-23T15:27:00;12.35;;;9.10;;
9409;SDS011;4744;52.576;13.568;2023-01-23T15:29:31;11.15;;;8.70;;
9409;SDS011;4744;52.576;13.568;2023-01-23T15:31:59;10.38;;;9.10;;
9409;SDS011;4744;52.576;13.568;2023-01-23T15:34:28;8.82;;;8.02;;
9409;SDS011;4744;52.576;13.568;2023-01-23T15:37:02;11.35;;;9.15;;
9409;SDS011;4744;52.576;13.568;2023-01-23T15:39:32;12.13;;;8.55;;
9409;SDS011;4744;52.576;13.568;2023-01-23T15:42:03;9.77;;;8.32;;
9409;SDS011;4744;52.576;13.568;2023-01-23T15:44:46;10.00;;;8.60;;
9409;SDS011;4744;52.576;13.568;2023-01-23T15:47:14;9.73;;;8.73;;
9409;SDS011;4744;52.576;13.568;2023-01-23T15:49:41;10.82;;;8.82;;
9409;SDS011;4744;52.576;13.568;2023-01-23T15:52:16;11.27;;;8.82;;
9409;SDS011;4744;52.576;13.568;2023-01-23T15:54:44;9.82;;;8.75;;
9409;SDS011;4744;52.576;13.568;2023-01-23T15:57:12;9.23;;;8.20;;
9409;SDS011;4744;52.576;13.568;2023-01-23T15:59:39;9.73;;;8.73;;
9409;SDS011;4744;52.576;13.568;2023-01-23T16:02:07;10.13;;;8.98;;
9409;SDS011;4744;52.576;13.568;2023-01-23T16:04:40;10.57;;;9.32;;
9409;SDS011;4744;52.576;13.568;2023-01-23T16:07:10;11.02;;;9.68;;
9409;SDS011;4744;52.576;13.568;2023-01-23T16:09:47;13.55;;;12.15;;
9409;SDS011;4744;52.576;13.568;2023-01-23T16:12:15;13.38;;;11.98;;
9409;SDS011;4744;52.576;13.568;2023-01-23T16:14:44;13.60;;;12.20;;
9409;SDS011;4744;52.576;13.568;2023-01-23T16:17:11;15.35;;;13.75;;
9409;SDS011;4744;52.576;13.568;2023-01-23T16:19:38;12.27;;;11.07;;
9409;SDS011;4744;52.576;13.568;2023-01-23T16:22:05;11.63;;;10.45;;
9409;SDS011;4744;52.576;13.568;2023-01-23T16:24:36;10.88;;;9.52;;
9409;SDS011;4744;52.576;13.568;2023-01-23T16:27:08;11.90;;;10.57;;
9409;SDS011;4744;52.576;13.568;2023-01-23T16:29:41;13.23;;;10.07;;
9409;SDS011;4744;52.576;13.568;2023-01-23T16:32:08;9.00;;;8.07;;
9409;SDS011;4744;52.576;13.568;2023-01-23T16:34:35;10.00;;;8.95;;
9409;SDS011;4744;52.576;13.568;2023-01-23T16:37:02;9.50;;;8.40;;
9409;SDS011;4744;52.576;13.568;2023-01-23T16:39:38;10.77;;;9.10;;
9409;SDS011;4744;52.576;13.568;2023-01-23T16:42:08;10.13;;;9.00;;
9409;SDS011;4744;52.576;13.568;2023-01-23T16:44:41;9.98;;;8.45;;
9409;SDS011;4744;52.576;13.568;2023-01-23T16:47:08;10.55;;;9.25;;
9409;SDS011;4744;52.576;13.568;2023-01-23T16:49:35;11.43;;;9.77;;
9409;SDS011;4744;52.576;13.568;2023-01-23T16:52:03;10.75;;;9.35;;
9409;SDS011;4744;52.576;13.568;2023-01-23T16:54:30;13.50;;;10.68;;
9409;SDS011;4744;52.576;13.568;2023-01-23T16:56:59;14.38;;;11.95;;
9409;SDS011;4744;52.576;13.568;2023-01-23T16:59:29;12.80;;;10.02;;
9409;SDS011;4744;52.576;13.568;2023-01-23T17:01:58;14.93;;;11.70;;
9409;SDS011;4744;52.576;13.568;2023-01-23T17:04:25;14.73;;;12.45;;
9409;SDS011;4744;52.576;13.568;2023-01-23T17:06:52;13.40;;;11.15;;
9409;SDS011;4744;52.576;13.568;2023-01-23T17:09:19;12.00;;;10.70;;
9409;SDS011;4744;52.576;13.568;2023-01-23T17:11:47;13.30;;;10.05;;
9409;SDS011;4744;52.576;13.568;2023-01-23T17:14:19;10.85;;;9.07;;
9409;SDS011;4744;52.576;13.568;2023-01-23T17:16:50;11.05;;;9.63;;
9409;SDS011;4744;52.576;13.568;2023-01-23T17:19:20;11.27;;;9.80;;
9409;SDS011;4744;52.576;13.568;2023-01-23T17:21:52;11.05;;;9.50;;
9409;SDS011;4744;52.576;13.568;2023-01-23T17:24:20;10.73;;;8.60;;
9409;SDS011;4744;52.576;13.568;2023-01-23T17:26:48;10.07;;;9.07;;
9409;SDS011;4744;52.576;13.568;2023-01-23T17:29:15;11.52;;;8.80;;
9409;SDS011;4744;52.576;13.568;2023-01-23T17:31:45;10.48;;;9.27;;
9409;SDS011;4744;52.576;13.568;2023-01-23T17:34:16;10.27;;;8.68;;
9409;SDS011;4744;52.576;13.568;2023-01-23T17:36:46;10.45;;;8.77;;
9409;SDS011;4744;52.576;13.568;2023-01-23T17:39:13;13.60;;;10.60;;
9409;SDS011;4744;52.576;13.568;2023-01-23T17:41:40;10.88;;;9.70;;
9409;SDS011;4744;52.576;13.568;2023-01-23T17:44:07;11.80;;;9.15;;
9409;SDS011;4744;52.576;13.568;2023-01-23T17:46:34;11.80;;;9.48;;
9409;SDS011;4744;52.576;13.568;2023-01-23T17:49:04;13.55;;;10.25;;
9409;SDS011;4744;52.576;13.568;2023-01-23T17:51:49;10.10;;;8.98;;